KSLC/SLC METAR and TAF weather

Enter ICAO airport designator
Station Type Date Time Source
KSLC METAR 2020/07/10 14:54 UTC NOAA

KSLC 101454Z VRB06KT 10SM CLR 29/M04 A3013 RMK AO2 SLP134 T02891039 51029


Station Type Date Time Source
KSLC Decoded METAR 2020/07/10 14:54 UTC NOAA

SALT LAKE CITY INTERNATIONAL AIRPORT , UT, United States (KSLC) 40-47N 111-58W 1286M
Jul 10, 2020 - 10:54 AM EDT / 2020.07.10 1454 UTC
Wind: Variable at 7 MPH (6 KT):0
Visibility: 10 mile(s):0
Sky conditions: clear
Temperature: 84.0 F (28.9 C)
Dew Point: 25.0 F (-3.9 C)
Relative Humidity: 11%
Pressure (altimeter): 30.13 in. Hg (1020 hPa)
Pressure tendency: 0.09 inches (2.9 hPa) higher than three hours ago
ob: KSLC 101454Z VRB06KT 10SM CLR 29/M04 A3013 RMK AO2 SLP134 T02891039 51029
cycle: 15

Station Type Date Time Source
KSLC TAF 2020/07/10 15:33 UTC NOAA

TAF
AMD KSLC 101430Z 1015/1118 18006KT P6SM SKC
FM101900 34009KT P6SM FEW250
FM110400 15006KT P6SM FEW250

Example: see airport list